Time;durP1;ratioP1;P1;durP2;ratioP2;P2;SDS_P1;SDS_P2;PMS_P1;PMS_P2;Temp;Humidity;BMP_temperature;BMP_pressure;BME280_temperature;BME280_humidity;BME280_pressure;Samples;Min_cycle;Max_cycle;Signal;HPM_P1;HPM_P2
2021/07/30 00:16:32;;;;;;;7.37;5.62;;;;;;;;;;4736751;28;20197;-68
2021/07/30 00:18:58;;;;;;;7.97;5.65;;;;;;;;;;4197444;34;20106;-70
2021/07/30 00:21:23;;;;;;;12.37;5.85;;;;;;;;;;4198131;34;20125;-71
2021/07/30 00:23:49;;;;;;;7.97;6.37;;;;;;;;;;4205144;34;20109;-71
2021/07/30 00:26:15;;;;;;;9.23;6.07;;;;;;;;;;4194779;34;20478;-71
2021/07/30 00:28:41;;;;;;;11.88;6.70;;;;;;;;;;4178607;34;20205;-71
2021/07/30 00:31:07;;;;;;;9.20;6.03;;;;;;;;;;4191188;34;20481;-71
2021/07/30 00:33:33;;;;;;;8.95;5.57;;;;;;;;;;4194586;34;20531;-71
2021/07/30 00:35:59;;;;;;;8.20;6.00;;;;;;;;;;4205265;34;20129;-71
2021/07/30 00:38:25;;;;;;;11.45;7.03;;;;;;;;;;4205029;34;20137;-71
2021/07/30 00:40:51;;;;;;;10.35;6.35;;;;;;;;;;4204818;34;20122;-71
2021/07/30 00:43:17;;;;;;;12.13;6.80;;;;;;;;;;4205000;34;20223;-71
2021/07/30 00:45:42;;;;;;;7.20;5.90;;;;;;;;;;4205159;34;20461;-71
2021/07/30 00:48:08;;;;;;;6.95;6.25;;;;;;;;;;4192127;34;20278;-71
2021/07/30 00:50:34;;;;;;;8.95;6.57;;;;;;;;;;4177301;34;20118;-71
2021/07/30 00:53:00;;;;;;;7.30;6.00;;;;;;;;;;4190710;34;20594;-71
2021/07/30 00:55:26;;;;;;;8.45;6.10;;;;;;;;;;4191114;34;20124;-70
2021/07/30 00:57:52;;;;;;;6.82;6.12;;;;;;;;;;4178411;34;20129;-71
2021/07/30 01:00:21;;;;;;;10.95;6.25;;;;;;;;;;4191084;34;20217;-71
2021/07/30 01:02:47;;;;;;;9.65;6.57;;;;;;;;;;4190894;34;20141;-70
2021/07/30 01:05:13;;;;;;;7.50;5.78;;;;;;;;;;4178344;34;20129;-70
2021/07/30 01:07:39;;;;;;;6.12;5.40;;;;;;;;;;4191156;34;20182;-70
2021/07/30 01:10:05;;;;;;;9.25;6.50;;;;;;;;;;4166897;34;20537;-70
2021/07/30 01:12:31;;;;;;;7.28;5.85;;;;;;;;;;4178292;34;20105;-70
2021/07/30 01:14:57;;;;;;;7.70;6.30;;;;;;;;;;4190859;34;20094;-70
2021/07/30 01:17:25;;;;;;;12.18;6.85;;;;;;;;;;4190049;34;20130;-70
2021/07/30 01:19:54;;;;;;;6.80;5.60;;;;;;;;;;4190865;34;20590;-70
2021/07/30 01:22:25;;;;;;;8.52;5.72;;;;;;;;;;4190859;34;20118;-68
2021/07/30 01:24:51;;;;;;;8.57;6.05;;;;;;;;;;4190883;34;20121;-70
2021/07/30 01:27:17;;;;;;;9.93;6.80;;;;;;;;;;4178039;34;20274;-70
2021/07/30 01:29:43;;;;;;;9.43;7.65;;;;;;;;;;4178089;34;20134;-70
2021/07/30 01:32:09;;;;;;;9.18;6.10;;;;;;;;;;4190608;34;20122;-70
2021/07/30 01:34:35;;;;;;;8.95;6.62;;;;;;;;;;4178262;34;20129;-70
2021/07/30 01:37:00;;;;;;;9.70;5.37;;;;;;;;;;4191002;34;20583;-70
2021/07/30 01:39:26;;;;;;;7.20;5.65;;;;;;;;;;4191013;34;20132;-70
2021/07/30 01:41:52;;;;;;;9.63;5.97;;;;;;;;;;4177759;34;20136;-71
2021/07/30 01:44:18;;;;;;;12.98;6.60;;;;;;;;;;4190716;34;20225;-71
2021/07/30 01:46:45;;;;;;;9.30;7.10;;;;;;;;;;4177942;34;20271;-71
2021/07/30 01:49:11;;;;;;;7.78;5.90;;;;;;;;;;4190798;34;20098;-71
2021/07/30 01:51:37;;;;;;;9.10;6.62;;;;;;;;;;4180190;34;20101;-70
2021/07/30 01:54:03;;;;;;;7.18;6.07;;;;;;;;;;4204567;34;20108;-70
2021/07/30 01:56:28;;;;;;;10.25;6.68;;;;;;;;;;4204331;34;20124;-70
2021/07/30 01:58:54;;;;;;;12.57;6.10;;;;;;;;;;4191752;34;20234;-70
2021/07/30 02:01:20;;;;;;;8.65;6.25;;;;;;;;;;4191709;34;20114;-70
2021/07/30 02:03:46;;;;;;;12.32;6.45;;;;;;;;;;4204388;34;20136;-70
2021/07/30 02:06:12;;;;;;;12.25;6.22;;;;;;;;;;4203596;34;20209;-70
2021/07/30 02:08:38;;;;;;;6.60;5.68;;;;;;;;;;4204472;34;20139;-71
2021/07/30 02:11:08;;;;;;;6.95;5.57;;;;;;;;;;4204139;34;20110;-70
2021/07/30 02:16:18;;;;;;;8.63;6.60;;;;;;;;;;4203813;34;20129;-71
2021/07/30 02:18:44;;;;;;;8.80;6.22;;;;;;;;;;4199035;34;20125;-71
2021/07/30 02:21:10;;;;;;;9.00;6.10;;;;;;;;;;4177469;34;20097;-73
2021/07/30 02:23:36;;;;;;;7.45;6.45;;;;;;;;;;4190345;34;20129;-73
2021/07/30 02:26:02;;;;;;;9.25;6.50;;;;;;;;;;4190186;34;20233;-73
2021/07/30 02:28:28;;;;;;;9.60;6.75;;;;;;;;;;4177619;34;20311;-73
2021/07/30 02:30:54;;;;;;;10.13;6.10;;;;;;;;;;4190237;34;20114;-73
2021/07/30 02:33:20;;;;;;;8.68;6.40;;;;;;;;;;4190352;34;20229;-73
2021/07/30 02:35:46;;;;;;;8.20;6.22;;;;;;;;;;4190110;34;20118;-73
2021/07/30 02:38:12;;;;;;;9.50;6.53;;;;;;;;;;4190384;34;20099;-73
2021/07/30 02:40:37;;;;;;;8.35;6.50;;;;;;;;;;4190265;34;20141;-70
2021/07/30 02:43:03;;;;;;;7.50;6.10;;;;;;;;;;4190080;34;20205;-70
2021/07/30 02:45:29;;;;;;;8.20;6.50;;;;;;;;;;4190127;34;20121;-71
2021/07/30 02:47:55;;;;;;;10.43;6.30;;;;;;;;;;4190079;34;20123;-71
2021/07/30 02:50:21;;;;;;;8.82;6.47;;;;;;;;;;4177492;34;20121;-70
2021/07/30 02:52:47;;;;;;;11.63;6.57;;;;;;;;;;4190191;34;20213;-70
2021/07/30 02:55:13;;;;;;;8.65;6.65;;;;;;;;;;4190023;34;20121;-71
2021/07/30 02:57:39;;;;;;;9.80;6.82;;;;;;;;;;4189113;34;20110;-70
2021/07/30 03:00:05;;;;;;;10.85;7.75;;;;;;;;;;4190105;34;20629;-70
2021/07/30 03:02:31;;;;;;;8.35;6.37;;;;;;;;;;4189855;34;20116;-68
2021/07/30 03:04:57;;;;;;;9.70;6.78;;;;;;;;;;4189773;34;20138;-68
2021/07/30 03:07:23;;;;;;;7.07;4.85;;;;;;;;;;4189873;34;20545;-69
2021/07/30 03:09:48;;;;;;;7.87;6.05;;;;;;;;;;4188626;34;20529;-68
2021/07/30 03:12:14;;;;;;;9.35;5.53;;;;;;;;;;4188197;34;20110;-68
2021/07/30 03:14:40;;;;;;;7.57;5.68;;;;;;;;;;4188437;34;20134;-68
2021/07/30 03:17:06;;;;;;;9.43;5.40;;;;;;;;;;4190380;34;20106;-69
2021/07/30 03:19:32;;;;;;;5.93;4.97;;;;;;;;;;4190457;34;20134;-68
2021/07/30 03:21:59;;;;;;;8.05;6.20;;;;;;;;;;4191548;34;20514;-69
2021/07/30 03:24:25;;;;;;;9.23;6.00;;;;;;;;;;4191906;34;20185;-68
2021/07/30 03:26:51;;;;;;;8.05;5.62;;;;;;;;;;4191952;34;20117;-67
2021/07/30 03:29:17;;;;;;;7.95;5.05;;;;;;;;;;4191716;34;20118;-67
2021/07/30 03:31:47;;;;;;;8.68;6.65;;;;;;;;;;4191700;34;20110;-69
2021/07/30 03:34:16;;;;;;;8.35;5.72;;;;;;;;;;4191933;34;20086;-69
2021/07/30 03:36:42;;;;;;;7.20;6.28;;;;;;;;;;4191916;34;20099;-69
2021/07/30 03:39:08;;;;;;;9.50;5.97;;;;;;;;;;4179211;34;20221;-69
2021/07/30 03:41:35;;;;;;;9.90;6.78;;;;;;;;;;4179224;34;20100;-69
2021/07/30 03:44:01;;;;;;;6.50;5.85;;;;;;;;;;4191956;34;20126;-69
2021/07/30 03:46:26;;;;;;;8.80;5.03;;;;;;;;;;4179300;34;20141;-69
2021/07/30 03:48:52;;;;;;;8.20;5.80;;;;;;;;;;4191533;34;20463;-69
2021/07/30 03:51:18;;;;;;;9.55;6.65;;;;;;;;;;4191574;34;20186;-69
2021/07/30 03:53:44;;;;;;;10.95;6.12;;;;;;;;;;4191524;34;20090;-70
2021/07/30 03:56:13;;;;;;;9.60;6.82;;;;;;;;;;4191288;34;20118;-69
2021/07/30 03:58:42;;;;;;;9.20;6.60;;;;;;;;;;4179044;34;20121;-69
2021/07/30 04:01:09;;;;;;;7.82;5.47;;;;;;;;;;4178469;34;20086;-70
2021/07/30 04:03:35;;;;;;;7.05;4.68;;;;;;;;;;4178602;34;20149;-69
2021/07/30 04:06:02;;;;;;;4.50;3.45;;;;;;;;;;4191381;34;20110;-70
2021/07/30 04:08:28;;;;;;;8.10;6.18;;;;;;;;;;4191645;34;20676;-69
2021/07/30 04:10:54;;;;;;;6.40;5.05;;;;;;;;;;4191207;34;20133;-69
2021/07/30 04:13:19;;;;;;;6.18;5.47;;;;;;;;;;4191261;34;20110;-69
2021/07/30 04:15:45;;;;;;;4.15;2.62;;;;;;;;;;4191012;34;20130;-69
2021/07/30 04:18:11;;;;;;;11.98;6.65;;;;;;;;;;4191249;34;20091;-70
2021/07/30 04:20:40;;;;;;;8.55;5.70;;;;;;;;;;4191251;34;20117;-70
2021/07/30 04:23:06;;;;;;;8.15;6.37;;;;;;;;;;4178596;34;20122;-70
2021/07/30 04:25:32;;;;;;;8.32;6.37;;;;;;;;;;4178839;34;20114;-70
2021/07/30 04:27:58;;;;;;;9.35;5.78;;;;;;;;;;4190580;34;20197;-70
2021/07/30 04:30:24;;;;;;;6.82;5.45;;;;;;;;;;4191350;34;20149;-70
2021/07/30 04:32:50;;;;;;;9.30;6.75;;;;;;;;;;4191413;34;20524;-69
2021/07/30 04:35:16;;;;;;;8.85;5.57;;;;;;;;;;4191175;34;20114;-70
2021/07/30 04:37:42;;;;;;;8.10;6.55;;;;;;;;;;4191023;34;20117;-70
2021/07/30 04:40:08;;;;;;;7.72;5.12;;;;;;;;;;4191051;34;20556;-70
2021/07/30 04:42:34;;;;;;;3.50;2.78;;;;;;;;;;4190996;34;20474;-70
2021/07/30 04:45:00;;;;;;;7.15;5.70;;;;;;;;;;4191045;34;20118;-70
2021/07/30 04:47:26;;;;;;;6.12;4.82;;;;;;;;;;4191020;34;20122;-69
2021/07/30 04:49:52;;;;;;;8.05;5.40;;;;;;;;;;4190921;34;20137;-70
2021/07/30 04:52:18;;;;;;;8.02;5.28;;;;;;;;;;4190927;34;20186;-70
2021/07/30 04:54:44;;;;;;;10.93;5.80;;;;;;;;;;4190964;34;20199;-69
2021/07/30 04:57:10;;;;;;;3.70;3.40;;;;;;;;;;4191006;34;20129;-70
2021/07/30 04:59:36;;;;;;;7.55;5.80;;;;;;;;;;4178216;34;20133;-70
2021/07/30 05:02:02;;;;;;;11.05;6.50;;;;;;;;;;4190613;34;20626;-69
2021/07/30 05:04:28;;;;;;;9.38;6.15;;;;;;;;;;4190927;34;20132;-70
2021/07/30 05:06:54;;;;;;;6.15;3.15;;;;;;;;;;4190929;34;20110;-70
2021/07/30 05:09:20;;;;;;;3.70;2.33;;;;;;;;;;4191017;34;20137;-69
2021/07/30 05:11:46;;;;;;;3.55;3.25;;;;;;;;;;4190558;34;20122;-70
2021/07/30 05:14:12;;;;;;;4.32;3.37;;;;;;;;;;4190720;34;20128;-69
2021/07/30 05:16:38;;;;;;;8.15;5.43;;;;;;;;;;4190471;34;20126;-70
2021/07/30 05:19:03;;;;;;;7.53;5.90;;;;;;;;;;4190569;34;20534;-69
2021/07/30 05:21:29;;;;;;;7.55;5.87;;;;;;;;;;4190439;34;20541;-69
2021/07/30 05:23:57;;;;;;;9.70;6.18;;;;;;;;;;4190826;34;20160;-69
2021/07/30 05:26:23;;;;;;;10.70;5.72;;;;;;;;;;4190726;34;20627;-69
2021/07/30 05:28:49;;;;;;;14.38;5.82;;;;;;;;;;4190536;34;20153;-69
2021/07/30 05:31:16;;;;;;;8.65;5.03;;;;;;;;;;4190511;34;20454;-69
2021/07/30 05:33:42;;;;;;;10.02;5.62;;;;;;;;;;4190573;34;20102;-70
2021/07/30 05:36:15;;;;;;;3.70;2.78;;;;;;;;;;4190478;34;20117;-69
2021/07/30 05:38:42;;;;;;;7.28;3.70;;;;;;;;;;4178121;34;20577;-69
2021/07/30 05:41:14;;;;;;;7.40;5.93;;;;;;;;;;4189415;34;20124;-69
2021/07/30 05:43:40;;;;;;;9.25;5.25;;;;;;;;;;4177835;34;20106;-69
2021/07/30 05:46:07;;;;;;;8.52;7.25;;;;;;;;;;4190291;34;20114;-69
2021/07/30 05:48:33;;;;;;;8.15;5.57;;;;;;;;;;4190361;34;20115;-69
2021/07/30 05:50:59;;;;;;;7.07;5.43;;;;;;;;;;4190256;34;20205;-69
2021/07/30 05:53:25;;;;;;;9.43;7.65;;;;;;;;;;4177595;34;20126;-69
2021/07/30 05:55:50;;;;;;;11.88;7.15;;;;;;;;;;4190086;34;20137;-69
2021/07/30 05:58:16;;;;;;;11.32;7.45;;;;;;;;;;4190183;34;20261;-69
2021/07/30 06:00:42;;;;;;;12.98;7.10;;;;;;;;;;4190287;34;20146;-70
2021/07/30 06:03:08;;;;;;;3.28;2.97;;;;;;;;;;4190376;34;20122;-69
2021/07/30 06:05:34;;;;;;;12.55;5.95;;;;;;;;;;4190375;34;20117;-70
2021/07/30 06:08:04;;;;;;;7.68;6.70;;;;;;;;;;4190185;34;20113;-69
2021/07/30 06:10:29;;;;;;;10.13;6.70;;;;;;;;;;4190221;34;20218;-69
2021/07/30 06:12:55;;;;;;;9.70;5.78;;;;;;;;;;4190232;34;20146;-69
2021/07/30 06:15:24;;;;;;;7.37;6.32;;;;;;;;;;4190251;34;20133;-69
2021/07/30 06:17:51;;;;;;;12.57;6.87;;;;;;;;;;4189700;34;20537;-69
2021/07/30 06:20:17;;;;;;;9.38;5.57;;;;;;;;;;4176532;34;20174;-70
2021/07/30 06:22:43;;;;;;;8.50;4.65;;;;;;;;;;4176278;34;20213;-69
2021/07/30 06:25:10;;;;;;;8.52;6.68;;;;;;;;;;4176385;34;20125;-70
2021/07/30 06:27:36;;;;;;;6.82;5.37;;;;;;;;;;4176411;34;20210;-69
2021/07/30 06:30:09;;;;;;;7.70;5.75;;;;;;;;;;4176262;34;20146;-69
2021/07/30 06:32:37;;;;;;;8.30;5.57;;;;;;;;;;4176362;34;20122;-68
2021/07/30 06:35:03;;;;;;;14.68;5.20;;;;;;;;;;4176271;34;20216;-70
2021/07/30 06:37:33;;;;;;;10.02;6.15;;;;;;;;;;4176193;34;20558;-69
2021/07/30 06:39:59;;;;;;;11.35;7.47;;;;;;;;;;4176407;34;20113;-69
2021/07/30 06:42:25;;;;;;;6.60;4.90;;;;;;;;;;4175955;34;20507;-69
2021/07/30 06:44:51;;;;;;;9.77;6.25;;;;;;;;;;4163837;34;20095;-69
2021/07/30 06:47:19;;;;;;;7.57;4.47;;;;;;;;;;4176138;34;20202;-69
2021/07/30 06:49:45;;;;;;;12.37;6.47;;;;;;;;;;4176061;34;20108;-69
2021/07/30 06:52:10;;;;;;;5.18;3.72;;;;;;;;;;4164883;34;20138;-69
2021/07/30 06:54:37;;;;;;;8.40;6.25;;;;;;;;;;4178174;34;20210;-69
2021/07/30 06:57:03;;;;;;;9.57;5.57;;;;;;;;;;4178210;34;20212;-69
2021/07/30 06:59:29;;;;;;;4.93;4.43;;;;;;;;;;4178373;34;20130;-69
2021/07/30 07:01:55;;;;;;;7.90;5.80;;;;;;;;;;4178270;34;20103;-69
2021/07/30 07:04:21;;;;;;;7.70;5.05;;;;;;;;;;4178221;34;20126;-68
2021/07/30 07:06:47;;;;;;;9.65;6.03;;;;;;;;;;4178048;34;20157;-69
2021/07/30 07:09:14;;;;;;;7.62;4.28;;;;;;;;;;4178142;34;20121;-68
2021/07/30 07:11:40;;;;;;;8.13;6.07;;;;;;;;;;4178084;34;20124;-68
2021/07/30 07:14:06;;;;;;;5.70;4.85;;;;;;;;;;4178235;34;20157;-68
2021/07/30 07:16:32;;;;;;;6.43;4.97;;;;;;;;;;4165441;34;20098;-68
2021/07/30 07:18:58;;;;;;;8.88;5.93;;;;;;;;;;4184383;34;20114;-68
2021/07/30 07:21:24;;;;;;;6.62;5.80;;;;;;;;;;4191447;34;20222;-68
2021/07/30 07:23:50;;;;;;;6.82;5.37;;;;;;;;;;4191682;34;20152;-68
2021/07/30 07:26:17;;;;;;;7.75;4.97;;;;;;;;;;4178907;34;20208;-68
2021/07/30 07:28:43;;;;;;;5.93;4.90;;;;;;;;;;4191672;34;20145;-68
2021/07/30 07:31:09;;;;;;;6.53;4.35;;;;;;;;;;4191392;34;20101;-68
2021/07/30 07:33:35;;;;;;;6.20;5.47;;;;;;;;;;4191602;34;20201;-69
2021/07/30 07:36:01;;;;;;;9.82;6.40;;;;;;;;;;4191757;34;20137;-69
2021/07/30 07:38:27;;;;;;;7.35;5.95;;;;;;;;;;4191674;34;20122;-69
2021/07/30 07:40:53;;;;;;;6.37;4.55;;;;;;;;;;4191318;34;20141;-69
2021/07/30 07:43:19;;;;;;;7.32;5.62;;;;;;;;;;4191494;34;20141;-69
2021/07/30 07:45:45;;;;;;;7.10;6.40;;;;;;;;;;4191398;34;20137;-69
2021/07/30 07:48:11;;;;;;;7.47;4.60;;;;;;;;;;4191385;34;20138;-69
2021/07/30 07:50:36;;;;;;;7.47;5.78;;;;;;;;;;4191479;34;20118;-68
2021/07/30 07:53:10;;;;;;;6.97;5.78;;;;;;;;;;4178627;34;20194;-68
2021/07/30 07:55:36;;;;;;;5.20;2.97;;;;;;;;;;4168389;34;20198;-69
2021/07/30 07:58:02;;;;;;;8.02;6.45;;;;;;;;;;4191467;34;20134;-69
2021/07/30 08:00:28;;;;;;;6.50;4.80;;;;;;;;;;4178660;34;20530;-68
2021/07/30 08:02:54;;;;;;;7.47;5.78;;;;;;;;;;4190706;34;20438;-69
2021/07/30 08:05:20;;;;;;;4.25;2.83;;;;;;;;;;4191452;34;20223;-69
2021/07/30 08:07:46;;;;;;;7.30;5.80;;;;;;;;;;4191463;34;20118;-68
2021/07/30 08:10:12;;;;;;;11.18;5.90;;;;;;;;;;4191336;34;20138;-68
2021/07/30 08:12:37;;;;;;;7.22;5.90;;;;;;;;;;4191118;34;20113;-68
2021/07/30 08:15:04;;;;;;;7.60;6.00;;;;;;;;;;4191249;34;20225;-68
2021/07/30 08:17:30;;;;;;;7.43;5.55;;;;;;;;;;4191163;34;20277;-68
2021/07/30 08:19:56;;;;;;;7.85;5.93;;;;;;;;;;4191337;34;20114;-68
2021/07/30 08:22:22;;;;;;;9.45;6.30;;;;;;;;;;4190983;34;20121;-68
2021/07/30 08:24:47;;;;;;;9.02;6.03;;;;;;;;;;4191188;34;20230;-69
2021/07/30 08:27:14;;;;;;;6.82;5.18;;;;;;;;;;4191112;34;20132;-68
2021/07/30 08:29:42;;;;;;;9.95;6.40;;;;;;;;;;4178617;34;20113;-68
2021/07/30 08:32:08;;;;;;;7.57;6.62;;;;;;;;;;4178349;34;20463;-68
2021/07/30 08:34:39;;;;;;;8.48;5.30;;;;;;;;;;4191077;34;20145;-68
2021/07/30 08:37:06;;;;;;;5.97;4.78;;;;;;;;;;4191154;34;20145;-67
2021/07/30 08:39:32;;;;;;;5.15;3.95;;;;;;;;;;4191049;34;20129;-68
2021/07/30 08:41:59;;;;;;;6.87;5.10;;;;;;;;;;4177987;34;20458;-68
2021/07/30 08:44:25;;;;;;;4.97;4.25;;;;;;;;;;4191194;34;20114;-68
2021/07/30 08:46:51;;;;;;;8.15;6.53;;;;;;;;;;4190881;34;20212;-68
2021/07/30 08:49:17;;;;;;;14.18;4.50;;;;;;;;;;4190850;34;20206;-68
2021/07/30 08:51:43;;;;;;;5.25;4.47;;;;;;;;;;4178266;34;20122;-68
2021/07/30 08:54:09;;;;;;;7.07;5.18;;;;;;;;;;4155533;34;20142;-68
2021/07/30 08:56:36;;;;;;;6.87;5.35;;;;;;;;;;4190628;34;20137;-68
2021/07/30 08:59:02;;;;;;;7.43;6.43;;;;;;;;;;4190831;34;20132;-68
2021/07/30 09:01:28;;;;;;;11.85;6.20;;;;;;;;;;4178089;34;20125;-68
2021/07/30 09:03:54;;;;;;;7.60;6.03;;;;;;;;;;4190964;34;20130;-68
2021/07/30 09:06:22;;;;;;;7.57;5.28;;;;;;;;;;4190939;34;20450;-68
2021/07/30 09:09:09;;;;;;;7.93;4.10;;;;;;;;;;4190929;34;20193;-68
2021/07/30 09:11:39;;;;;;;9.68;6.30;;;;;;;;;;4190846;34;20111;-68
2021/07/30 09:14:09;;;;;;;8.18;6.45;;;;;;;;;;4190616;34;20118;-68
2021/07/30 09:16:52;;;;;;;9.23;5.50;;;;;;;;;;4177789;34;20145;-73
2021/07/30 09:19:18;;;;;;;5.70;4.35;;;;;;;;;;4177963;34;20098;-73
2021/07/30 09:21:44;;;;;;;6.60;5.62;;;;;;;;;;4190614;34;20121;-73
2021/07/30 09:24:13;;;;;;;7.12;5.70;;;;;;;;;;4190559;34;20118;-72
2021/07/30 09:26:50;;;;;;;7.60;5.78;;;;;;;;;;4178119;34;20133;-73
2021/07/30 09:29:17;;;;;;;6.30;4.45;;;;;;;;;;4190780;34;20090;-73
2021/07/30 09:32:00;;;;;;;6.87;4.78;;;;;;;;;;4190461;34;20114;-73
2021/07/30 09:34:36;;;;;;;7.75;5.68;;;;;;;;;;4190662;34;20567;-73
2021/07/30 09:37:03;;;;;;;6.93;5.22;;;;;;;;;;4178824;34;20534;-73
2021/07/30 09:39:40;;;;;;;7.47;5.93;;;;;;;;;;4190811;34;20137;-72
2021/07/30 09:42:17;;;;;;;5.12;3.80;;;;;;;;;;4190607;34;20110;-73
2021/07/30 09:45:05;;;;;;;7.57;5.07;;;;;;;;;;4190587;34;20109;-73
2021/07/30 09:47:33;;;;;;;10.50;5.40;;;;;;;;;;4177871;34;20184;-73
2021/07/30 09:50:01;;;;;;;6.32;5.25;;;;;;;;;;4190698;34;20106;-73
2021/07/30 09:52:32;;;;;;;6.95;5.82;;;;;;;;;;4166415;34;20122;-73
2021/07/30 09:54:59;;;;;;;7.47;5.55;;;;;;;;;;4190480;34;20110;-72
2021/07/30 09:57:30;;;;;;;4.80;3.60;;;;;;;;;;4190235;34;20153;-71
2021/07/30 09:59:59;;;;;;;7.75;5.12;;;;;;;;;;4190460;34;20101;-72
2021/07/30 10:02:29;;;;;;;2.67;2.33;;;;;;;;;;4190175;34;20133;-73
2021/07/30 10:04:55;;;;;;;6.70;4.90;;;;;;;;;;4190395;34;20094;-72
2021/07/30 10:07:22;;;;;;;7.15;5.47;;;;;;;;;;4190222;34;20474;-72
2021/07/30 10:10:02;;;;;;;6.95;4.93;;;;;;;;;;4190905;34;20606;-72
2021/07/30 10:12:29;;;;;;;5.62;4.55;;;;;;;;;;4190423;34;20098;-72
2021/07/30 10:14:55;;;;;;;5.95;5.35;;;;;;;;;;4190251;34;20120;-72
2021/07/30 10:17:30;;;;;;;5.70;4.90;;;;;;;;;;4177361;34;20216;-72
2021/07/30 10:20:00;;;;;;;6.53;5.07;;;;;;;;;;4190199;34;20454;-73
2021/07/30 10:22:32;;;;;;;6.78;5.07;;;;;;;;;;4190233;34;20128;-72
2021/07/30 10:24:58;;;;;;;6.55;4.60;;;;;;;;;;4177467;34;20451;-73
2021/07/30 10:27:24;;;;;;;6.43;5.20;;;;;;;;;;4165339;34;20106;-73
2021/07/30 10:30:01;;;;;;;5.43;4.78;;;;;;;;;;4177521;34;20098;-72
2021/07/30 10:32:47;;;;;;;7.68;4.95;;;;;;;;;;4190088;34;20208;-73
2021/07/30 10:35:28;;;;;;;;;;;;;;;;;;4190601;34;20535;-73
2021/07/30 10:38:14;;;;;;;7.47;5.97;;;;;;;;;;4189782;34;19993;-73
2021/07/30 10:40:41;;;;;;;3.25;2.95;;;;;;;;;;4190190;34;20462;-73
2021/07/30 10:43:11;;;;;;;3.33;3.03;;;;;;;;;;4189821;34;20098;-73
2021/07/30 10:46:09;;;;;;;6.93;4.47;;;;;;;;;;4190086;34;20114;-74
2021/07/30 10:48:35;;;;;;;6.10;5.22;;;;;;;;;;4190045;34;20108;-72
2021/07/30 10:51:04;;;;;;;7.93;5.03;;;;;;;;;;4189816;34;20200;-72
2021/07/30 10:53:39;;;;;;;6.65;5.20;;;;;;;;;;4190123;34;20096;-71
2021/07/30 10:56:17;;;;;;;5.40;4.28;;;;;;;;;;4189777;34;20157;-73
2021/07/30 10:58:43;;;;;;;6.22;5.12;;;;;;;;;;4177964;34;20116;-73
2021/07/30 11:01:16;;;;;;;10.18;5.22;;;;;;;;;;4189498;34;20221;-72
2021/07/30 11:03:51;;;;;;;6.07;4.70;;;;;;;;;;4189681;34;20117;-73
2021/07/30 11:06:21;;;;;;;4.18;3.50;;;;;;;;;;4189841;34;20102;-73
2021/07/30 11:09:08;;;;;;;6.62;4.47;;;;;;;;;;4189669;34;20105;-73
2021/07/30 11:11:57;;;;;;;7.60;4.85;;;;;;;;;;4189500;34;20580;-73
2021/07/30 11:14:37;;;;;;;7.47;4.93;;;;;;;;;;4178577;34;20098;-73
2021/07/30 11:17:05;;;;;;;4.75;4.25;;;;;;;;;;4189638;34;20113;-73
2021/07/30 11:19:35;;;;;;;7.60;4.82;;;;;;;;;;4177000;34;20198;-73
2021/07/30 11:22:03;;;;;;;6.75;5.15;;;;;;;;;;4189678;34;20462;-73
2021/07/30 11:24:29;;;;;;;5.03;4.10;;;;;;;;;;4189471;34;20153;-73
2021/07/30 11:26:55;;;;;;;4.97;3.83;;;;;;;;;;4189276;34;20121;-73
2021/07/30 11:29:22;;;;;;;5.62;4.60;;;;;;;;;;4189551;34;20277;-72
2021/07/30 11:31:56;;;;;;;5.78;4.60;;;;;;;;;;4189524;34;20113;-72
2021/07/30 11:34:28;;;;;;;7.43;5.07;;;;;;;;;;4189577;34;20107;-73
2021/07/30 11:36:58;;;;;;;7.10;5.00;;;;;;;;;;4189508;34;20090;-73
2021/07/30 11:39:34;;;;;;;5.32;4.22;;;;;;;;;;4191455;34;20189;-73
2021/07/30 11:42:00;;;;;;;3.90;3.42;;;;;;;;;;4191379;34;20122;-73
2021/07/30 11:44:26;;;;;;;5.68;4.35;;;;;;;;;;4191455;34;20130;-73
2021/07/30 11:46:56;;;;;;;7.45;4.97;;;;;;;;;;4178827;34;20133;-72
2021/07/30 11:49:35;;;;;;;5.68;4.37;;;;;;;;;;4191490;34;20204;-72
2021/07/30 11:52:02;;;;;;;6.10;4.45;;;;;;;;;;4191259;34;20638;-72
2021/07/30 11:54:28;;;;;;;4.93;4.30;;;;;;;;;;4191516;34;20462;-72
2021/07/30 11:56:54;;;;;;;5.07;4.47;;;;;;;;;;4191157;34;20212;-74
2021/07/30 11:59:21;;;;;;;3.70;2.78;;;;;;;;;;4191474;34;20474;-72
2021/07/30 12:02:06;;;;;;;5.07;4.37;;;;;;;;;;4167272;34;20547;-73
2021/07/30 12:04:32;;;;;;;11.77;3.67;;;;;;;;;;4191215;34;20094;-73
2021/07/30 12:07:07;;;;;;;6.28;5.07;;;;;;;;;;4191162;34;20113;-73
2021/07/30 12:09:33;;;;;;;;;;;;;;;;;;4178912;34;20218;-73
2021/07/30 12:11:59;;;;;;;5.80;4.40;;;;;;;;;;4178352;34;19997;-73
2021/07/30 12:14:27;;;;;;;6.07;4.37;;;;;;;;;;4178090;34;20294;-72
2021/07/30 12:16:53;;;;;;;6.85;5.20;;;;;;;;;;4178396;34;20137;-72
2021/07/30 12:19:35;;;;;;;5.97;4.10;;;;;;;;;;4178630;34;20221;-73
2021/07/30 12:22:01;;;;;;;4.82;3.92;;;;;;;;;;4191002;34;20106;-74
2021/07/30 12:24:28;;;;;;;5.37;4.05;;;;;;;;;;4191142;34;20110;-75
2021/07/30 12:26:55;;;;;;;5.50;4.18;;;;;;;;;;4191013;34;20137;-72
2021/07/30 12:29:48;;;;;;;3.92;3.17;;;;;;;;;;4191110;34;20604;-71
2021/07/30 12:32:18;;;;;;;7.80;4.15;;;;;;;;;;4190150;34;20511;-73
2021/07/30 12:34:54;;;;;;;5.65;4.12;;;;;;;;;;4191105;34;20439;-73
2021/07/30 12:37:20;;;;;;;5.25;3.97;;;;;;;;;;4191194;34;20202;-72
2021/07/30 12:39:46;;;;;;;4.37;3.95;;;;;;;;;;4190859;34;20126;-72
2021/07/30 12:42:26;;;;;;;9.60;4.50;;;;;;;;;;4191068;34;20098;-72
2021/07/30 12:45:11;;;;;;;6.12;4.05;;;;;;;;;;4178673;34;20176;-70
2021/07/30 12:47:39;;;;;;;5.25;4.37;;;;;;;;;;4191089;34;20574;-71
2021/07/30 12:50:28;;;;;;;5.93;4.00;;;;;;;;;;4178237;34;20122;-70
2021/07/30 12:53:24;;;;;;;10.45;4.78;;;;;;;;;;4190942;34;20450;-71
2021/07/30 12:55:59;;;;;;;4.73;4.10;;;;;;;;;;4190720;34;20099;-70
2021/07/30 12:58:35;;;;;;;6.22;4.43;;;;;;;;;;4191129;34;20169;-69
2021/07/30 13:01:11;;;;;;;7.65;4.45;;;;;;;;;;4190994;34;20540;-72
2021/07/30 13:03:38;;;;;;;5.80;4.55;;;;;;;;;;4191053;34;20110;-72
2021/07/30 13:06:07;;;;;;;10.63;4.78;;;;;;;;;;4190911;34;20227;-72
2021/07/30 13:08:37;;;;;;;6.22;4.68;;;;;;;;;;4191229;34;20565;-73
2021/07/30 13:11:03;;;;;;;5.72;4.50;;;;;;;;;;4190619;34;20205;-72
2021/07/30 13:13:29;;;;;;;5.20;4.12;;;;;;;;;;4190853;34;20216;-70
2021/07/30 13:15:56;;;;;;;7.62;4.07;;;;;;;;;;4190762;34;20458;-71
2021/07/30 13:18:22;;;;;;;5.65;3.95;;;;;;;;;;4178063;34;20543;-71
2021/07/30 13:20:49;;;;;;;5.75;4.32;;;;;;;;;;4190877;34;20210;-71
2021/07/30 13:23:16;;;;;;;7.75;4.30;;;;;;;;;;4190811;34;20083;-71
2021/07/30 13:25:42;;;;;;;4.97;4.22;;;;;;;;;;4190663;34;20122;-71
2021/07/30 13:28:08;;;;;;;7.22;4.43;;;;;;;;;;4190826;34;20298;-72
2021/07/30 13:30:34;;;;;;;5.40;4.43;;;;;;;;;;4190737;34;20154;-72
2021/07/30 13:33:02;;;;;;;10.60;4.47;;;;;;;;;;4190600;34;20462;-71
2021/07/30 13:35:32;;;;;;;7.05;4.97;;;;;;;;;;4190743;34;20561;-70
2021/07/30 13:37:58;;;;;;;7.03;5.10;;;;;;;;;;4190755;34;20094;-70
2021/07/30 13:40:25;;;;;;;5.55;4.18;;;;;;;;;;4190558;34;20186;-72
2021/07/30 13:42:51;;;;;;;8.52;5.10;;;;;;;;;;4190364;34;20124;-71
2021/07/30 13:45:17;;;;;;;6.05;4.47;;;;;;;;;;4177791;34;20145;-72
2021/07/30 13:47:42;;;;;;;11.50;4.68;;;;;;;;;;4190689;34;20588;-72
2021/07/30 13:50:09;;;;;;;8.15;4.37;;;;;;;;;;4190828;34;20246;-73
2021/07/30 13:52:35;;;;;;;7.22;4.35;;;;;;;;;;4190237;34;20106;-74
2021/07/30 13:55:01;;;;;;;6.53;4.37;;;;;;;;;;4177705;34;20132;-73
2021/07/30 13:57:26;;;;;;;6.68;4.30;;;;;;;;;;4177623;34;20513;-73
2021/07/30 13:59:52;;;;;;;6.57;3.85;;;;;;;;;;4190252;34;20134;-74
2021/07/30 14:02:18;;;;;;;6.18;4.37;;;;;;;;;;4189642;34;20129;-74
2021/07/30 14:04:44;;;;;;;11.10;4.90;;;;;;;;;;4190317;34;20125;-73
2021/07/30 14:07:10;;;;;;;4.85;4.03;;;;;;;;;;4190153;34;20530;-73
2021/07/30 14:09:37;;;;;;;6.18;3.97;;;;;;;;;;4190515;34;20526;-74
2021/07/30 14:12:04;;;;;;;4.97;4.25;;;;;;;;;;4190417;34;20118;-74
2021/07/30 14:14:36;;;;;;;6.80;4.35;;;;;;;;;;4190420;34;20137;-73
2021/07/30 14:17:03;;;;;;;4.97;3.97;;;;;;;;;;4177880;34;20563;-73
2021/07/30 14:19:29;;;;;;;8.18;4.32;;;;;;;;;;4190319;34;20125;-73
2021/07/30 14:21:55;;;;;;;7.32;3.87;;;;;;;;;;4190111;34;20105;-70
2021/07/30 14:24:20;;;;;;;9.27;4.28;;;;;;;;;;4190471;34;20121;-69
2021/07/30 14:26:46;;;;;;;4.97;4.37;;;;;;;;;;4190194;34;20180;-69
2021/07/30 14:29:12;;;;;;;7.35;4.28;;;;;;;;;;4177571;34;20510;-69
2021/07/30 14:31:38;;;;;;;9.75;4.22;;;;;;;;;;4190091;34;20101;-69
2021/07/30 14:34:04;;;;;;;8.70;4.50;;;;;;;;;;4190351;34;20137;-69
2021/07/30 14:36:30;;;;;;;5.75;3.75;;;;;;;;;;4189980;34;20209;-70
2021/07/30 14:38:56;;;;;;;10.88;4.37;;;;;;;;;;4189989;34;20561;-71
2021/07/30 14:41:22;;;;;;;8.48;4.50;;;;;;;;;;4189889;34;20117;-71
2021/07/30 14:43:48;;;;;;;10.77;4.53;;;;;;;;;;4189940;34;20525;-71
2021/07/30 14:46:34;;;;;;;5.65;3.92;;;;;;;;;;4190127;34;20218;-70
2021/07/30 14:49:01;;;;;;;5.43;4.57;;;;;;;;;;4190085;34;20202;-71
2021/07/30 14:51:27;;;;;;;11.70;4.18;;;;;;;;;;4165789;34;20126;-72
2021/07/30 14:53:53;;;;;;;10.50;4.60;;;;;;;;;;4166300;34;20134;-69
2021/07/30 14:56:19;;;;;;;4.10;3.70;;;;;;;;;;4189866;34;20109;-70
2021/07/30 14:58:46;;;;;;;8.23;4.50;;;;;;;;;;4190072;34;20110;-70
2021/07/30 15:01:12;;;;;;;4.93;4.20;;;;;;;;;;4189621;34;20133;-70
2021/07/30 15:03:38;;;;;;;11.48;4.70;;;;;;;;;;4190164;34;20129;-70